createdAt,value
2019-02-04T00:00:30.035Z,8.43
2019-02-04T00:02:58.829Z,8.30
2019-02-04T00:05:27.257Z,7.70
2019-02-04T00:07:55.706Z,8.30
2019-02-04T00:10:24.202Z,8.77
2019-02-04T00:12:52.662Z,8.13
2019-02-04T00:15:21.625Z,8.83
2019-02-04T00:17:50.077Z,8.30
2019-02-04T00:20:18.642Z,8.07
2019-02-04T00:22:47.089Z,7.30
2019-02-04T00:25:15.515Z,7.87
2019-02-04T00:27:43.966Z,7.27
2019-02-04T00:30:23.689Z,8.47
2019-02-04T00:32:52.208Z,9.90
2019-02-04T00:35:20.699Z,8.10
2019-02-04T00:37:49.225Z,8.50
2019-02-04T00:40:23.220Z,8.53
2019-02-04T00:42:51.667Z,8.00
2019-02-04T00:45:20.100Z,8.27
2019-02-04T00:47:48.551Z,7.93
2019-02-04T00:50:19.427Z,8.03
2019-02-04T00:52:47.870Z,8.07
2019-02-04T00:55:16.659Z,8.37
2019-02-04T00:57:45.389Z,8.40
2019-02-04T01:00:30.941Z,8.70
2019-02-04T01:02:59.456Z,7.87
2019-02-04T01:05:28.064Z,7.53
2019-02-04T01:07:56.751Z,7.70
2019-02-04T01:10:27.284Z,7.13
2019-02-04T01:12:55.873Z,6.93
2019-02-04T01:15:24.410Z,6.37
2019-02-04T01:17:52.960Z,6.80
2019-02-04T01:20:29.237Z,7.20
2019-02-04T01:22:58.340Z,6.70
2019-02-04T01:25:26.896Z,6.83
2019-02-04T01:27:55.488Z,6.60
2019-02-04T01:30:24.756Z,6.20
2019-02-04T01:32:53.452Z,6.77
2019-02-04T01:35:21.947Z,7.93
2019-02-04T01:37:50.471Z,8.23
2019-02-04T01:40:24.255Z,7.90
2019-02-04T01:42:53.246Z,6.97
2019-02-04T01:45:21.843Z,7.53
2019-02-04T01:47:50.350Z,7.20
2019-02-04T01:50:22.990Z,7.17
2019-02-04T01:52:51.505Z,7.87
2019-02-04T01:55:20.005Z,6.90
2019-02-04T01:57:53.840Z,7.00
2019-02-04T02:00:30.698Z,7.17
2019-02-04T02:02:59.464Z,6.70
2019-02-04T02:05:27.953Z,7.03
2019-02-04T02:07:56.477Z,6.80
2019-02-04T02:10:26.606Z,6.63
2019-02-04T02:12:55.292Z,7.00
2019-02-04T02:15:23.785Z,6.90
2019-02-04T02:17:52.228Z,6.67
2019-02-04T02:20:22.895Z,7.10
2019-02-04T02:22:51.512Z,7.10
2019-02-04T02:25:20.002Z,6.93
2019-02-04T02:27:48.517Z,6.40
2019-02-04T02:30:22.611Z,6.50
2019-02-04T02:32:51.072Z,6.50
2019-02-04T02:35:19.631Z,7.20
2019-02-04T02:37:48.058Z,6.57
2019-02-04T02:40:21.794Z,6.77
2019-02-04T02:42:50.210Z,6.57
2019-02-04T02:45:18.915Z,6.80
2019-02-04T02:47:47.349Z,7.03
2019-02-04T02:50:16.435Z,6.70
2019-02-04T02:52:44.861Z,5.80
2019-02-04T02:55:16.253Z,5.80
2019-02-04T02:57:44.677Z,5.77
2019-02-04T03:00:16.244Z,5.33
2019-02-04T03:02:44.732Z,5.97
2019-02-04T03:05:15.525Z,7.50
2019-02-04T03:07:43.946Z,6.27
2019-02-04T03:10:15.568Z,5.90
2019-02-04T03:12:44.063Z,6.10
2019-02-04T03:15:13.354Z,6.37
2019-02-04T03:17:51.228Z,7.00
2019-02-04T03:20:12.790Z,6.60
2019-02-04T03:22:41.216Z,6.60
2019-02-04T03:25:12.306Z,5.53
2019-02-04T03:27:41.020Z,5.90
2019-02-04T03:30:15.819Z,6.80
2019-02-04T03:32:44.232Z,6.63
2019-02-04T03:35:12.750Z,5.63
2019-02-04T03:37:41.173Z,6.20
2019-02-04T03:40:12.825Z,6.67
2019-02-04T03:42:41.253Z,6.80
2019-02-04T03:45:11.744Z,6.90
2019-02-04T03:47:40.231Z,6.30
2019-02-04T03:50:11.324Z,6.90
2019-02-04T03:52:39.816Z,6.90
2019-02-04T03:55:11.083Z,6.80
2019-02-04T03:57:39.580Z,6.97
2019-02-04T04:00:19.042Z,6.83
2019-02-04T04:02:47.463Z,6.43
2019-02-04T04:05:15.986Z,6.53
2019-02-04T04:07:44.762Z,6.00
2019-02-04T04:10:13.967Z,6.20
2019-02-04T04:12:42.378Z,5.33
2019-02-04T04:15:13.430Z,6.13
2019-02-04T04:17:41.860Z,6.03
2019-02-04T04:20:13.048Z,5.40
2019-02-04T04:22:41.537Z,6.30
2019-02-04T04:25:12.227Z,6.40
2019-02-04T04:27:40.721Z,6.40
2019-02-04T04:30:12.342Z,6.00
2019-02-04T04:32:40.762Z,6.37
2019-02-04T04:35:09.348Z,6.53
2019-02-04T04:37:37.837Z,5.80
2019-02-04T04:40:09.330Z,6.27
2019-02-04T04:42:37.755Z,6.03
2019-02-04T04:45:09.006Z,6.07
2019-02-04T04:47:37.434Z,6.53
2019-02-04T04:50:08.420Z,6.10
2019-02-04T04:52:36.840Z,5.83
2019-02-04T04:55:14.421Z,6.53
2019-02-04T04:57:42.914Z,6.03
2019-02-04T05:00:14.485Z,7.00
2019-02-04T05:02:43.276Z,6.40
2019-02-04T05:05:13.619Z,7.10
2019-02-04T05:07:42.133Z,6.83
2019-02-04T05:10:16.209Z,6.37
2019-02-04T05:12:44.668Z,6.20
2019-02-04T05:15:15.933Z,6.33
2019-02-04T05:17:44.378Z,6.87
2019-02-04T05:20:15.343Z,6.43
2019-02-04T05:22:43.797Z,5.60
2019-02-04T05:25:12.470Z,6.00
2019-02-04T05:27:40.921Z,6.10
2019-02-04T05:30:12.761Z,6.90
2019-02-04T05:32:41.206Z,6.93
2019-02-04T05:35:09.705Z,6.70
2019-02-04T05:37:38.161Z,6.60
2019-02-04T05:40:09.390Z,6.00
2019-02-04T05:42:37.845Z,6.70
2019-02-04T05:45:09.084Z,6.40
2019-02-04T05:47:37.537Z,7.17
2019-02-04T05:50:09.203Z,7.07
2019-02-04T05:52:37.656Z,7.10
2019-02-04T05:55:07.119Z,7.50
2019-02-04T05:57:35.570Z,7.60
2019-02-04T06:00:24.413Z,7.03
2019-02-04T06:02:52.866Z,6.70
2019-02-04T06:05:21.925Z,6.77
2019-02-04T06:07:50.366Z,7.60
2019-02-04T06:10:19.539Z,7.10
2019-02-04T06:12:47.992Z,6.90
2019-02-04T06:15:17.752Z,7.30
2019-02-04T06:17:46.204Z,7.40
2019-02-04T06:20:25.352Z,7.20
2019-02-04T06:22:54.176Z,6.53
2019-02-04T06:25:22.683Z,7.40
2019-02-04T06:27:51.099Z,7.53
2019-02-04T06:30:19.796Z,7.60
2019-02-04T06:32:48.352Z,7.40
2019-02-04T06:35:18.142Z,7.80
2019-02-04T06:37:47.303Z,7.53
2019-02-04T06:40:17.138Z,7.23
2019-02-04T06:42:45.635Z,7.20
2019-02-04T06:45:16.223Z,8.20
2019-02-04T06:47:44.711Z,7.57
2019-02-04T06:50:17.998Z,7.10
2019-02-04T06:52:46.424Z,6.90
2019-02-04T06:55:20.189Z,7.13
2019-02-04T06:57:48.685Z,7.23
2019-02-04T07:00:18.170Z,7.67
2019-02-04T07:02:47.133Z,7.23
2019-02-04T07:05:16.699Z,7.93
2019-02-04T07:07:45.321Z,7.80
2019-02-04T07:10:19.564Z,8.07
2019-02-04T07:12:48.061Z,7.53
2019-02-04T07:15:16.617Z,7.80
2019-02-04T07:17:45.134Z,8.00
2019-02-04T07:20:22.239Z,8.43
2019-02-04T07:22:50.751Z,8.33
2019-02-04T07:25:19.617Z,8.37
2019-02-04T07:27:48.066Z,8.30
2019-02-04T07:30:24.277Z,8.50
2019-02-04T07:32:53.076Z,8.20
2019-02-04T07:35:21.577Z,9.00
2019-02-04T07:37:50.092Z,9.07
2019-02-04T07:40:27.095Z,9.80
2019-02-04T07:42:55.541Z,8.83
2019-02-04T07:45:24.040Z,8.70
2019-02-04T07:47:52.773Z,8.50
2019-02-04T07:50:21.344Z,8.13
2019-02-04T07:52:49.785Z,8.93
2019-02-04T07:55:18.210Z,8.97
2019-02-04T07:57:46.778Z,8.50
2019-02-04T08:00:18.366Z,8.47
2019-02-04T08:02:46.994Z,8.80
2019-02-04T08:05:15.580Z,7.90
2019-02-04T08:07:44.099Z,9.30
2019-02-04T08:10:16.878Z,7.80
2019-02-04T08:12:45.332Z,8.57
2019-02-04T08:15:25.727Z,8.10
2019-02-04T08:17:54.840Z,8.73
2019-02-04T08:20:23.261Z,8.13
2019-02-04T08:22:51.685Z,8.47
2019-02-04T08:25:20.613Z,9.47
2019-02-04T08:27:49.107Z,8.50
2019-02-04T08:30:30.040Z,8.47
2019-02-04T08:32:58.534Z,8.73
2019-02-04T08:35:27.116Z,9.50
2019-02-04T08:37:55.676Z,9.83
2019-02-04T08:40:24.190Z,9.80
2019-02-04T08:42:52.888Z,9.70
2019-02-04T08:45:21.344Z,9.40
2019-02-04T08:47:49.774Z,10.03
2019-02-04T08:50:25.954Z,9.87
2019-02-04T08:52:54.374Z,9.53
2019-02-04T08:55:22.965Z,10.40
2019-02-04T08:57:51.842Z,8.80
2019-02-04T09:00:22.604Z,9.80
2019-02-04T09:02:51.092Z,9.30
2019-02-04T09:05:20.776Z,10.57
2019-02-04T09:07:49.271Z,9.00
2019-02-04T09:10:20.883Z,9.97
2019-02-04T09:12:49.682Z,9.70
2019-02-04T09:15:18.300Z,10.40
2019-02-04T09:17:46.792Z,10.60
2019-02-04T09:20:17.450Z,10.23
2019-02-04T09:22:46.306Z,10.40
2019-02-04T09:25:16.893Z,11.43
2019-02-04T09:27:45.388Z,11.00
2019-02-04T09:30:19.358Z,10.47
2019-02-04T09:32:47.922Z,10.23
2019-02-04T09:35:21.103Z,9.30
2019-02-04T09:37:49.755Z,9.67
2019-02-04T09:40:23.663Z,10.90
2019-02-04T09:42:52.150Z,11.77
2019-02-04T09:45:20.731Z,10.73
2019-02-04T09:47:49.252Z,11.10
2019-02-04T09:50:23.053Z,11.50
2019-02-04T09:52:51.570Z,11.27
2019-02-04T09:55:22.803Z,11.87
2019-02-04T09:57:51.326Z,11.03
2019-02-04T10:00:22.919Z,10.73
2019-02-04T10:02:51.434Z,11.43
2019-02-04T10:05:20.403Z,11.70
2019-02-04T10:07:48.856Z,11.30
2019-02-04T10:10:20.576Z,10.90
2019-02-04T10:12:49.080Z,11.70
2019-02-04T10:15:24.048Z,11.17
2019-02-04T10:17:54.483Z,12.10
2019-02-04T10:20:33.556Z,10.67
2019-02-04T10:22:56.069Z,10.97
2019-02-04T10:25:30.451Z,11.47
2019-02-04T10:28:01.820Z,11.20
2019-02-04T10:30:32.623Z,10.43
2019-02-04T10:33:03.904Z,11.00
2019-02-04T10:35:35.718Z,10.30
2019-02-04T10:38:06.078Z,10.97
2019-02-04T10:40:39.218Z,10.57
2019-02-04T10:43:11.815Z,10.50
2019-02-04T10:45:44.573Z,10.47
2019-02-04T10:48:15.630Z,10.23
2019-02-04T10:50:46.872Z,11.47
2019-02-04T10:53:18.833Z,10.77
2019-02-04T10:55:49.812Z,9.73
2019-02-04T10:58:18.594Z,9.77
2019-02-04T11:00:50.766Z,10.13
2019-02-04T11:03:21.545Z,9.77
2019-02-04T11:05:53.759Z,9.10
2019-02-04T11:08:24.158Z,10.03
2019-02-04T11:10:55.318Z,9.50
2019-02-04T11:13:26.193Z,8.90
2019-02-04T11:15:54.997Z,9.87
2019-02-04T11:18:25.665Z,9.27
2019-02-04T11:20:58.091Z,9.50
2019-02-04T11:23:29.237Z,9.70
2019-02-04T11:25:58.002Z,8.30
2019-02-04T11:28:28.239Z,8.10
2019-02-04T11:31:02.145Z,8.47
2019-02-04T11:33:33.450Z,8.73
2019-02-04T11:36:02.453Z,7.93
2019-02-04T11:38:35.688Z,8.63
2019-02-04T11:41:04.276Z,6.37
2019-02-04T11:43:33.894Z,8.10
2019-02-04T11:46:04.292Z,8.10
2019-02-04T11:48:35.283Z,9.10
2019-02-04T11:51:09.899Z,8.83
2019-02-04T11:53:37.839Z,8.30
2019-02-04T11:56:06.254Z,8.33
2019-02-04T11:58:36.513Z,8.47
2019-02-04T12:01:06.986Z,7.43
2019-02-04T12:03:39.573Z,7.50
2019-02-04T12:06:11.962Z,8.77
2019-02-04T12:08:40.785Z,8.83
2019-02-04T12:11:11.089Z,8.80
2019-02-04T12:13:43.103Z,8.40
2019-02-04T12:16:12.404Z,8.00
2019-02-04T12:18:42.109Z,8.63
2019-02-04T12:21:21.099Z,7.70
2019-02-04T12:23:44.147Z,8.00
2019-02-04T12:26:19.294Z,8.33
2019-02-04T12:28:50.024Z,8.73
2019-02-04T12:31:19.105Z,7.80
2019-02-04T12:33:51.120Z,8.60
2019-02-04T12:36:19.810Z,8.13
2019-02-04T12:38:56.332Z,8.73
2019-02-04T12:41:28.766Z,8.40
2019-02-04T12:44:01.282Z,8.47
2019-02-04T12:46:37.057Z,8.60
2019-02-04T12:51:58.772Z,8.00
2019-02-04T12:54:28.858Z,7.73
2019-02-04T12:56:57.554Z,8.53
2019-02-04T12:59:28.743Z,8.03
2019-02-04T13:01:58.794Z,8.27
2019-02-04T13:04:41.524Z,7.93
2019-02-04T13:07:11.910Z,7.97
2019-02-04T13:09:40.739Z,8.40
2019-02-04T13:12:14.315Z,7.90
2019-02-04T13:14:43.119Z,7.43
2019-02-04T13:17:11.921Z,7.87
2019-02-04T13:19:43.006Z,7.97
2019-02-04T13:22:13.436Z,7.40
2019-02-04T13:24:44.697Z,7.80
2019-02-04T13:27:15.190Z,8.03
2019-02-04T13:29:48.674Z,7.40
2019-02-04T13:32:20.680Z,7.50
2019-02-04T13:34:50.253Z,7.73
2019-02-04T13:37:21.752Z,7.77
2019-02-04T13:39:50.672Z,7.60
2019-02-04T13:42:21.584Z,7.80
2019-02-04T13:44:51.161Z,7.30
2019-02-04T13:47:22.941Z,7.40
2019-02-04T13:49:51.688Z,7.70
2019-02-04T13:52:25.693Z,7.20
2019-02-04T13:54:55.887Z,7.17
2019-02-04T13:57:27.201Z,7.40
2019-02-04T13:59:57.209Z,7.67
2019-02-04T14:02:29.285Z,8.23
2019-02-04T14:04:58.417Z,7.43
2019-02-04T14:07:29.215Z,7.63
2019-02-04T14:09:59.698Z,7.03
2019-02-04T14:12:28.520Z,7.20
2019-02-04T14:15:00.422Z,7.40
2019-02-04T14:17:31.786Z,7.50
2019-02-04T14:20:03.872Z,8.00
2019-02-04T14:22:36.210Z,7.27
2019-02-04T14:25:06.954Z,7.20
2019-02-04T14:27:39.108Z,7.50
2019-02-04T14:30:10.742Z,7.07
2019-02-04T14:32:41.841Z,6.57
2019-02-04T14:35:10.827Z,6.47
2019-02-04T14:37:41.536Z,6.87
2019-02-04T14:40:18.581Z,6.93
2019-02-04T14:42:48.831Z,6.57
2019-02-04T14:45:53.275Z,7.00
2019-02-04T14:48:31.018Z,6.03
2019-02-04T14:51:22.444Z,6.13
2019-02-04T14:54:16.559Z,6.60
2019-02-04T14:56:51.283Z,6.50
2019-02-04T14:59:25.474Z,7.70
2019-02-04T15:02:09.451Z,6.70
2019-02-04T15:04:52.220Z,7.63
2019-02-04T15:07:33.310Z,7.27
2019-02-04T15:10:21.493Z,7.23
2019-02-04T15:13:09.041Z,7.53
2019-02-04T15:15:57.820Z,7.93
2019-02-04T15:18:48.209Z,7.90
2019-02-04T15:21:19.975Z,8.17
2019-02-04T15:24:08.757Z,7.40
2019-02-04T15:26:45.250Z,8.60
2019-02-04T15:29:19.423Z,7.50
2019-02-04T15:32:05.180Z,8.10
2019-02-04T15:34:36.974Z,7.30
2019-02-04T15:37:13.511Z,8.40
2019-02-04T15:40:12.066Z,7.60
2019-02-04T15:42:43.832Z,8.47
2019-02-04T15:45:18.451Z,7.83
2019-02-04T15:47:51.068Z,8.30
2019-02-04T15:50:28.802Z,8.00
2019-02-04T15:52:58.895Z,8.10
2019-02-04T15:55:27.867Z,7.70
2019-02-04T15:57:56.527Z,8.50
2019-02-04T16:00:29.441Z,9.00
2019-02-04T16:02:59.665Z,8.77
2019-02-04T16:05:29.220Z,8.97
2019-02-04T16:08:00.147Z,8.30
2019-02-04T16:10:29.545Z,9.23
2019-02-04T16:13:11.651Z,8.87
2019-02-04T16:15:42.601Z,9.77
2019-02-04T16:18:14.786Z,10.00
2019-02-04T16:20:44.820Z,9.00
2019-02-04T16:23:14.323Z,9.67
2019-02-04T16:25:42.768Z,9.03
2019-02-04T16:28:12.893Z,9.57
2019-02-04T16:30:41.332Z,9.97
2019-02-04T16:33:11.878Z,9.27
2019-02-04T16:35:41.302Z,9.53
2019-02-04T16:38:20.443Z,10.40
2019-02-04T16:40:50.649Z,9.83
2019-02-04T16:43:21.724Z,9.83
2019-02-04T16:48:42.624Z,9.57
2019-02-04T16:51:12.775Z,8.67
2019-02-04T16:53:44.513Z,10.30
2019-02-04T16:56:14.001Z,9.63
2019-02-04T16:58:42.919Z,9.70
2019-02-04T17:01:16.311Z,8.63
2019-02-04T17:03:49.845Z,8.73
2019-02-04T17:06:22.626Z,10.07
2019-02-04T17:08:53.757Z,8.90
2019-02-04T17:11:24.201Z,8.93
2019-02-04T17:13:59.629Z,9.73
2019-02-04T17:16:32.146Z,8.63
2019-02-04T17:19:02.092Z,9.90
2019-02-04T17:21:34.783Z,10.03
2019-02-04T17:24:12.990Z,9.20
2019-02-04T17:26:41.959Z,9.30
2019-02-04T17:29:14.732Z,9.33
2019-02-04T17:31:45.997Z,10.07
2019-02-04T17:34:14.578Z,10.43
2019-02-04T17:36:44.322Z,9.70
2019-02-04T17:39:15.909Z,9.60
2019-02-04T17:41:44.833Z,9.57
2019-02-04T17:44:14.427Z,9.07
2019-02-04T17:46:45.692Z,10.20
2019-02-04T17:49:14.467Z,8.90
2019-02-04T17:51:45.738Z,9.30
2019-02-04T17:54:20.347Z,9.10
2019-02-04T17:56:53.857Z,9.43
2019-02-04T17:59:24.225Z,9.20
2019-02-04T18:01:54.461Z,9.20
2019-02-04T18:04:24.445Z,9.63
2019-02-04T18:06:53.502Z,9.23
2019-02-04T18:09:24.589Z,8.67
2019-02-04T18:11:53.759Z,8.47
2019-02-04T18:14:22.827Z,8.63
2019-02-04T18:16:53.232Z,8.93
2019-02-04T18:19:23.781Z,8.57
2019-02-04T18:21:56.355Z,9.20
2019-02-04T18:24:27.021Z,9.10
2019-02-04T18:26:59.490Z,8.57
2019-02-04T18:29:30.856Z,7.97
2019-02-04T18:32:04.109Z,9.03
2019-02-04T18:34:35.379Z,8.33
2019-02-04T18:37:05.993Z,8.63
2019-02-04T18:39:35.253Z,7.77
2019-02-04T18:42:03.830Z,9.10
2019-02-04T18:44:32.909Z,7.57
2019-02-04T18:47:02.201Z,7.37
2019-02-04T18:49:31.528Z,7.80
2019-02-04T18:52:00.575Z,7.47
2019-02-04T18:54:29.815Z,8.47
2019-02-04T18:56:58.991Z,7.77
2019-02-04T18:59:27.900Z,8.17
2019-02-04T19:01:57.511Z,8.03
2019-02-04T19:04:26.541Z,8.07
2019-02-04T19:06:55.314Z,7.17
2019-02-04T19:09:24.640Z,7.00
2019-02-04T19:11:55.544Z,7.57
2019-02-04T19:14:24.640Z,7.27
2019-02-04T19:16:54.009Z,7.60
2019-02-04T19:19:22.793Z,7.23
2019-02-04T19:21:51.969Z,6.73
2019-02-04T19:24:21.165Z,6.90
2019-02-04T19:26:50.210Z,7.17
2019-02-04T19:29:19.502Z,7.63
2019-02-04T19:31:48.850Z,7.17
2019-02-04T19:34:18.915Z,7.60
2019-02-04T19:36:48.413Z,7.20
2019-02-04T19:39:18.048Z,6.57
2019-02-04T19:41:47.905Z,6.80
2019-02-04T19:44:17.476Z,7.23
2019-02-04T19:46:46.851Z,6.40
2019-02-04T19:49:15.882Z,6.30
2019-02-04T19:51:45.429Z,6.67
2019-02-04T19:54:21.507Z,7.30
2019-02-04T19:56:45.492Z,6.70
2019-02-04T19:59:14.510Z,6.80
2019-02-04T20:01:43.780Z,7.00
2019-02-04T20:04:12.836Z,6.97
2019-02-04T20:06:42.402Z,7.07
2019-02-04T20:09:12.108Z,6.67
2019-02-04T20:11:41.057Z,7.40
2019-02-04T20:14:10.314Z,7.70
2019-02-04T20:16:39.785Z,7.10
2019-02-04T20:19:09.446Z,6.63
2019-02-04T20:21:39.032Z,6.77
2019-02-04T20:24:08.375Z,6.83
2019-02-04T20:26:37.716Z,7.10
2019-02-04T20:29:07.039Z,6.47
2019-02-04T20:31:36.389Z,6.80
2019-02-04T20:34:05.898Z,7.13
2019-02-04T20:36:35.583Z,6.90
2019-02-04T20:39:07.170Z,6.80
2019-02-04T20:41:36.547Z,6.20
2019-02-04T20:44:06.379Z,6.60
2019-02-04T20:46:36.166Z,7.20
2019-02-04T20:49:05.825Z,6.33
2019-02-04T20:51:34.991Z,6.53
2019-02-04T20:54:04.155Z,7.03
2019-02-04T20:56:34.020Z,6.53
2019-02-04T20:59:03.436Z,7.20
2019-02-04T21:01:32.576Z,7.63
2019-02-04T21:04:01.949Z,6.70
2019-02-04T21:06:31.111Z,6.40
2019-02-04T21:09:00.033Z,6.07
2019-02-04T21:11:29.047Z,6.50
2019-02-04T21:13:57.836Z,6.73
2019-02-04T21:16:26.696Z,6.20
2019-02-04T21:18:55.275Z,6.60
2019-02-04T21:21:24.024Z,6.30
2019-02-04T21:23:52.711Z,6.00
2019-02-04T21:26:21.263Z,6.33
2019-02-04T21:28:50.050Z,6.43
2019-02-04T21:31:18.997Z,6.40
2019-02-04T21:33:47.792Z,6.87
2019-02-04T21:36:16.214Z,6.30
2019-02-04T21:38:44.798Z,6.60
2019-02-04T21:41:13.354Z,6.70
2019-02-04T21:43:41.798Z,6.03
2019-02-04T21:46:10.753Z,6.00
2019-02-04T21:48:39.338Z,6.17
2019-02-04T21:51:07.820Z,6.03
2019-02-04T21:53:36.264Z,6.20
2019-02-04T21:56:05.042Z,5.93
2019-02-04T21:58:33.487Z,6.17
2019-02-04T22:01:01.972Z,6.77
2019-02-04T22:03:30.560Z,6.17
2019-02-04T22:05:58.975Z,6.40
2019-02-04T22:08:27.412Z,6.40
2019-02-04T22:10:56.228Z,6.03
2019-02-04T22:13:24.663Z,5.50
2019-02-04T22:15:53.419Z,5.20
2019-02-04T22:18:21.955Z,5.27
2019-02-04T22:20:50.754Z,5.80
2019-02-04T22:23:19.170Z,5.53
2019-02-04T22:25:47.857Z,5.20
2019-02-04T22:28:16.273Z,5.50
2019-02-04T22:30:45.090Z,5.20
2019-02-04T22:33:13.506Z,5.13
2019-02-04T22:35:41.952Z,5.37
2019-02-04T22:38:10.368Z,5.10
2019-02-04T22:40:38.806Z,5.10
2019-02-04T22:43:07.289Z,5.07
2019-02-04T22:45:35.727Z,5.70
2019-02-04T22:48:04.582Z,5.67
2019-02-04T22:50:33.095Z,5.07
2019-02-04T22:53:02.435Z,5.03
2019-02-04T22:55:32.456Z,4.83
2019-02-04T22:58:01.276Z,5.50
2019-02-04T23:00:49.293Z,4.90
2019-02-04T23:03:20.434Z,5.00
2019-02-04T23:05:48.945Z,5.23
2019-02-04T23:08:17.422Z,5.00
2019-02-04T23:10:46.015Z,5.10
2019-02-04T23:13:14.434Z,5.10
2019-02-04T23:15:42.941Z,5.30
2019-02-04T23:18:11.710Z,4.83
2019-02-04T23:20:40.330Z,5.17
2019-02-04T23:23:08.740Z,5.27
2019-02-04T23:25:43.531Z,5.13
2019-02-04T23:28:07.384Z,5.10
2019-02-04T23:30:35.902Z,5.10
2019-02-04T23:33:04.929Z,4.87
2019-02-04T23:35:33.448Z,4.20
2019-02-04T23:38:01.865Z,5.03
2019-02-04T23:40:30.316Z,4.47
2019-02-04T23:42:58.808Z,4.93
2019-02-04T23:45:27.258Z,5.10
2019-02-04T23:47:56.105Z,5.47
2019-02-04T23:50:24.624Z,5.07
2019-02-04T23:52:53.053Z,5.43
2019-02-04T23:55:21.482Z,5.43
2019-02-04T23:57:51.536Z,5.00
